sensor_id;sensor_type;location;lat;lon;timestamp;P1;durP1;ratioP1;P2;durP2;ratioP2
56712;SDS011;42589;45.536;9.032;2022-07-19T00:01:00;10.65;;;4.80;;
56712;SDS011;42589;45.536;9.032;2022-07-19T00:04:01;5.53;;;4.22;;
56712;SDS011;42589;45.536;9.032;2022-07-19T00:07:02;7.60;;;4.60;;
56712;SDS011;42589;45.536;9.032;2022-07-19T00:10:04;5.82;;;4.95;;
56712;SDS011;42589;45.536;9.032;2022-07-19T00:13:07;7.18;;;4.82;;
56712;SDS011;42589;45.536;9.032;2022-07-19T00:16:08;11.70;;;5.53;;
56712;SDS011;42589;45.536;9.032;2022-07-19T00:19:09;5.57;;;5.07;;
56712;SDS011;42589;45.536;9.032;2022-07-19T00:22:10;8.30;;;4.68;;
56712;SDS011;42589;45.536;9.032;2022-07-19T00:25:11;10.70;;;4.97;;
56712;SDS011;42589;45.536;9.032;2022-07-19T00:28:12;8.23;;;4.82;;
56712;SDS011;42589;45.536;9.032;2022-07-19T00:31:13;7.57;;;5.07;;
56712;SDS011;42589;45.536;9.032;2022-07-19T00:34:14;12.45;;;5.53;;
56712;SDS011;42589;45.536;9.032;2022-07-19T00:37:15;12.07;;;5.13;;
56712;SDS011;42589;45.536;9.032;2022-07-19T00:40:22;7.80;;;5.13;;
56712;SDS011;42589;45.536;9.032;2022-07-19T00:43:23;7.90;;;5.18;;
56712;SDS011;42589;45.536;9.032;2022-07-19T00:46:24;8.95;;;5.28;;
56712;SDS011;42589;45.536;9.032;2022-07-19T00:49:25;5.80;;;4.78;;
56712;SDS011;42589;45.536;9.032;2022-07-19T00:52:25;6.22;;;4.60;;
56712;SDS011;42589;45.536;9.032;2022-07-19T00:55:29;6.65;;;4.68;;
56712;SDS011;42589;45.536;9.032;2022-07-19T00:58:31;12.73;;;5.07;;
56712;SDS011;42589;45.536;9.032;2022-07-19T01:01:32;8.02;;;4.90;;
56712;SDS011;42589;45.536;9.032;2022-07-19T01:04:33;6.65;;;4.70;;
56712;SDS011;42589;45.536;9.032;2022-07-19T01:07:34;9.68;;;4.70;;
56712;SDS011;42589;45.536;9.032;2022-07-19T01:10:37;6.28;;;4.57;;
56712;SDS011;42589;45.536;9.032;2022-07-19T01:13:37;6.65;;;4.10;;
56712;SDS011;42589;45.536;9.032;2022-07-19T01:16:42;9.20;;;4.80;;
56712;SDS011;42589;45.536;9.032;2022-07-19T01:19:44;10.32;;;5.28;;
56712;SDS011;42589;45.536;9.032;2022-07-19T01:22:46;8.80;;;4.93;;
56712;SDS011;42589;45.536;9.032;2022-07-19T01:25:47;8.98;;;5.40;;
56712;SDS011;42589;45.536;9.032;2022-07-19T01:28:48;12.80;;;8.30;;
56712;SDS011;42589;45.536;9.032;2022-07-19T01:31:49;10.20;;;8.18;;
56712;SDS011;42589;45.536;9.032;2022-07-19T01:34:50;10.00;;;8.40;;
56712;SDS011;42589;45.536;9.032;2022-07-19T01:37:51;12.77;;;8.43;;
56712;SDS011;42589;45.536;9.032;2022-07-19T01:40:51;10.55;;;8.07;;
56712;SDS011;42589;45.536;9.032;2022-07-19T01:43:53;10.63;;;6.90;;
56712;SDS011;42589;45.536;9.032;2022-07-19T01:46:55;11.90;;;6.93;;
56712;SDS011;42589;45.536;9.032;2022-07-19T01:49:55;7.35;;;5.93;;
56712;SDS011;42589;45.536;9.032;2022-07-19T01:52:56;10.77;;;5.53;;
56712;SDS011;42589;45.536;9.032;2022-07-19T01:55:57;5.00;;;4.38;;
56712;SDS011;42589;45.536;9.032;2022-07-19T01:58:58;8.30;;;4.43;;
56712;SDS011;42589;45.536;9.032;2022-07-19T02:01:59;8.35;;;4.90;;
56712;SDS011;42589;45.536;9.032;2022-07-19T02:05:00;8.85;;;4.65;;
56712;SDS011;42589;45.536;9.032;2022-07-19T02:08:01;6.00;;;4.57;;
56712;SDS011;42589;45.536;9.032;2022-07-19T02:11:02;6.50;;;4.68;;
56712;SDS011;42589;45.536;9.032;2022-07-19T02:14:22;5.97;;;4.13;;
56712;SDS011;42589;45.536;9.032;2022-07-19T02:17:23;6.35;;;3.72;;
56712;SDS011;42589;45.536;9.032;2022-07-19T02:20:24;3.85;;;3.53;;
56712;SDS011;42589;45.536;9.032;2022-07-19T02:23:25;6.40;;;3.63;;
56712;SDS011;42589;45.536;9.032;2022-07-19T02:26:26;5.93;;;3.95;;
56712;SDS011;42589;45.536;9.032;2022-07-19T02:29:26;7.20;;;3.65;;
56712;SDS011;42589;45.536;9.032;2022-07-19T02:32:27;4.78;;;3.67;;
56712;SDS011;42589;45.536;9.032;2022-07-19T02:35:28;4.32;;;3.40;;
56712;SDS011;42589;45.536;9.032;2022-07-19T02:38:31;4.85;;;3.70;;
56712;SDS011;42589;45.536;9.032;2022-07-19T02:41:32;6.82;;;3.97;;
56712;SDS011;42589;45.536;9.032;2022-07-19T02:44:34;6.72;;;3.90;;
56712;SDS011;42589;45.536;9.032;2022-07-19T02:47:35;8.48;;;4.72;;
56712;SDS011;42589;45.536;9.032;2022-07-19T02:50:35;7.68;;;3.80;;
56712;SDS011;42589;45.536;9.032;2022-07-19T02:53:36;5.10;;;4.10;;
56712;SDS011;42589;45.536;9.032;2022-07-19T02:56:36;6.00;;;4.10;;
56712;SDS011;42589;45.536;9.032;2022-07-19T02:59:37;5.90;;;4.03;;
56712;SDS011;42589;45.536;9.032;2022-07-19T03:02:38;5.82;;;4.22;;
56712;SDS011;42589;45.536;9.032;2022-07-19T03:05:39;5.47;;;3.72;;
56712;SDS011;42589;45.536;9.032;2022-07-19T03:08:40;4.63;;;3.85;;
56712;SDS011;42589;45.536;9.032;2022-07-19T03:11:41;9.25;;;4.57;;
56712;SDS011;42589;45.536;9.032;2022-07-19T03:14:41;5.07;;;3.75;;
56712;SDS011;42589;45.536;9.032;2022-07-19T03:17:42;8.20;;;4.30;;
56712;SDS011;42589;45.536;9.032;2022-07-19T03:20:43;6.55;;;4.43;;
56712;SDS011;42589;45.536;9.032;2022-07-19T03:23:44;6.60;;;4.50;;
56712;SDS011;42589;45.536;9.032;2022-07-19T03:26:44;6.65;;;4.45;;
56712;SDS011;42589;45.536;9.032;2022-07-19T03:29:46;8.60;;;4.78;;
56712;SDS011;42589;45.536;9.032;2022-07-19T03:32:46;5.72;;;4.90;;
56712;SDS011;42589;45.536;9.032;2022-07-19T03:35:47;12.25;;;4.85;;
56712;SDS011;42589;45.536;9.032;2022-07-19T03:38:48;7.97;;;4.65;;
56712;SDS011;42589;45.536;9.032;2022-07-19T03:41:49;11.27;;;4.80;;
56712;SDS011;42589;45.536;9.032;2022-07-19T03:44:52;10.15;;;4.88;;
56712;SDS011;42589;45.536;9.032;2022-07-19T03:47:53;7.28;;;5.00;;
56712;SDS011;42589;45.536;9.032;2022-07-19T03:50:53;8.35;;;5.13;;
56712;SDS011;42589;45.536;9.032;2022-07-19T03:53:54;10.27;;;4.93;;
56712;SDS011;42589;45.536;9.032;2022-07-19T03:56:55;6.45;;;4.63;;
56712;SDS011;42589;45.536;9.032;2022-07-19T03:59:55;8.77;;;5.15;;
56712;SDS011;42589;45.536;9.032;2022-07-19T04:02:57;6.05;;;4.88;;
56712;SDS011;42589;45.536;9.032;2022-07-19T04:05:58;12.65;;;5.90;;
56712;SDS011;42589;45.536;9.032;2022-07-19T04:08:59;9.73;;;5.28;;
56712;SDS011;42589;45.536;9.032;2022-07-19T04:11:59;7.68;;;5.00;;
56712;SDS011;42589;45.536;9.032;2022-07-19T04:15:01;11.77;;;5.55;;
56712;SDS011;42589;45.536;9.032;2022-07-19T04:18:01;8.70;;;5.20;;
56712;SDS011;42589;45.536;9.032;2022-07-19T04:21:01;7.78;;;5.45;;
56712;SDS011;42589;45.536;9.032;2022-07-19T04:24:03;8.57;;;5.30;;
56712;SDS011;42589;45.536;9.032;2022-07-19T04:27:04;9.45;;;5.15;;
56712;SDS011;42589;45.536;9.032;2022-07-19T04:30:05;12.65;;;5.15;;
56712;SDS011;42589;45.536;9.032;2022-07-19T04:33:07;12.40;;;6.40;;
56712;SDS011;42589;45.536;9.032;2022-07-19T04:36:07;8.90;;;5.50;;
56712;SDS011;42589;45.536;9.032;2022-07-19T04:39:08;9.15;;;5.40;;
56712;SDS011;42589;45.536;9.032;2022-07-19T04:42:09;9.52;;;5.15;;
56712;SDS011;42589;45.536;9.032;2022-07-19T04:45:10;9.10;;;5.43;;
56712;SDS011;42589;45.536;9.032;2022-07-19T04:48:11;9.30;;;6.10;;
56712;SDS011;42589;45.536;9.032;2022-07-19T04:51:12;8.30;;;6.53;;
56712;SDS011;42589;45.536;9.032;2022-07-19T04:54:13;12.63;;;6.40;;
56712;SDS011;42589;45.536;9.032;2022-07-19T04:57:14;11.23;;;6.07;;
56712;SDS011;42589;45.536;9.032;2022-07-19T05:00:15;7.55;;;5.70;;
56712;SDS011;42589;45.536;9.032;2022-07-19T05:03:16;9.10;;;5.75;;
56712;SDS011;42589;45.536;9.032;2022-07-19T05:06:17;9.02;;;6.03;;
56712;SDS011;42589;45.536;9.032;2022-07-19T05:09:18;11.45;;;6.45;;
56712;SDS011;42589;45.536;9.032;2022-07-19T05:12:19;9.90;;;4.55;;
56712;SDS011;42589;45.536;9.032;2022-07-19T05:15:19;14.32;;;5.85;;
56712;SDS011;42589;45.536;9.032;2022-07-19T05:18:20;8.90;;;5.10;;
56712;SDS011;42589;45.536;9.032;2022-07-19T05:21:20;8.90;;;5.45;;
56712;SDS011;42589;45.536;9.032;2022-07-19T05:24:21;7.53;;;4.82;;
56712;SDS011;42589;45.536;9.032;2022-07-19T05:27:22;6.78;;;4.60;;
56712;SDS011;42589;45.536;9.032;2022-07-19T05:30:23;7.72;;;5.03;;
56712;SDS011;42589;45.536;9.032;2022-07-19T05:33:23;7.10;;;4.50;;
56712;SDS011;42589;45.536;9.032;2022-07-19T05:36:25;9.70;;;5.13;;
56712;SDS011;42589;45.536;9.032;2022-07-19T05:39:26;15.48;;;5.65;;
56712;SDS011;42589;45.536;9.032;2022-07-19T05:42:26;12.07;;;5.10;;
56712;SDS011;42589;45.536;9.032;2022-07-19T05:45:26;7.85;;;4.95;;
56712;SDS011;42589;45.536;9.032;2022-07-19T05:48:28;8.02;;;4.75;;
56712;SDS011;42589;45.536;9.032;2022-07-19T05:51:29;8.02;;;4.70;;
56712;SDS011;42589;45.536;9.032;2022-07-19T05:54:29;7.32;;;4.40;;
56712;SDS011;42589;45.536;9.032;2022-07-19T05:57:30;12.40;;;4.72;;
56712;SDS011;42589;45.536;9.032;2022-07-19T06:00:31;10.20;;;4.25;;
56712;SDS011;42589;45.536;9.032;2022-07-19T06:03:32;11.02;;;4.82;;
56712;SDS011;42589;45.536;9.032;2022-07-19T06:06:34;9.38;;;5.30;;
56712;SDS011;42589;45.536;9.032;2022-07-19T06:09:35;11.90;;;4.95;;
56712;SDS011;42589;45.536;9.032;2022-07-19T06:12:36;10.25;;;5.15;;
56712;SDS011;42589;45.536;9.032;2022-07-19T06:15:37;19.35;;;4.93;;
56712;SDS011;42589;45.536;9.032;2022-07-19T06:18:38;8.05;;;4.30;;
56712;SDS011;42589;45.536;9.032;2022-07-19T06:21:40;7.80;;;4.90;;
56712;SDS011;42589;45.536;9.032;2022-07-19T06:24:40;7.10;;;4.60;;
56712;SDS011;42589;45.536;9.032;2022-07-19T06:27:44;7.72;;;4.30;;
56712;SDS011;42589;45.536;9.032;2022-07-19T06:30:45;7.72;;;4.85;;
56712;SDS011;42589;45.536;9.032;2022-07-19T06:33:47;10.30;;;5.07;;
56712;SDS011;42589;45.536;9.032;2022-07-19T06:36:50;8.90;;;4.90;;
56712;SDS011;42589;45.536;9.032;2022-07-19T06:39:51;7.60;;;4.65;;
56712;SDS011;42589;45.536;9.032;2022-07-19T06:42:51;9.57;;;4.90;;
56712;SDS011;42589;45.536;9.032;2022-07-19T06:45:52;7.47;;;4.63;;
56712;SDS011;42589;45.536;9.032;2022-07-19T06:48:55;9.32;;;4.65;;
56712;SDS011;42589;45.536;9.032;2022-07-19T06:51:56;9.80;;;4.90;;
56712;SDS011;42589;45.536;9.032;2022-07-19T06:54:59;6.13;;;4.43;;
56712;SDS011;42589;45.536;9.032;2022-07-19T06:58:03;8.48;;;4.30;;
56712;SDS011;42589;45.536;9.032;2022-07-19T07:01:04;8.40;;;4.72;;
56712;SDS011;42589;45.536;9.032;2022-07-19T07:04:04;11.85;;;4.93;;
56712;SDS011;42589;45.536;9.032;2022-07-19T07:07:05;6.68;;;4.10;;
56712;SDS011;42589;45.536;9.032;2022-07-19T07:10:06;8.25;;;3.95;;
56712;SDS011;42589;45.536;9.032;2022-07-19T07:13:08;7.60;;;3.75;;
56712;SDS011;42589;45.536;9.032;2022-07-19T07:16:09;5.30;;;3.78;;
56712;SDS011;42589;45.536;9.032;2022-07-19T07:19:10;7.00;;;3.72;;
56712;SDS011;42589;45.536;9.032;2022-07-19T07:22:11;10.85;;;3.90;;
56712;SDS011;42589;45.536;9.032;2022-07-19T07:25:12;8.05;;;4.43;;
56712;SDS011;42589;45.536;9.032;2022-07-19T07:28:13;10.40;;;3.78;;
56712;SDS011;42589;45.536;9.032;2022-07-19T07:31:14;6.20;;;3.70;;
56712;SDS011;42589;45.536;9.032;2022-07-19T07:34:16;6.78;;;3.80;;
56712;SDS011;42589;45.536;9.032;2022-07-19T07:37:17;6.88;;;3.42;;
56712;SDS011;42589;45.536;9.032;2022-07-19T07:40:17;5.97;;;3.28;;
56712;SDS011;42589;45.536;9.032;2022-07-19T07:43:18;6.60;;;3.45;;
56712;SDS011;42589;45.536;9.032;2022-07-19T07:46:19;10.30;;;3.70;;
56712;SDS011;42589;45.536;9.032;2022-07-19T07:49:20;5.88;;;3.22;;
56712;SDS011;42589;45.536;9.032;2022-07-19T07:52:21;6.72;;;3.65;;
56712;SDS011;42589;45.536;9.032;2022-07-19T07:55:22;4.82;;;3.65;;
56712;SDS011;42589;45.536;9.032;2022-07-19T07:58:23;7.40;;;3.50;;
56712;SDS011;42589;45.536;9.032;2022-07-19T08:01:24;15.25;;;3.47;;
56712;SDS011;42589;45.536;9.032;2022-07-19T08:04:26;8.32;;;4.03;;
56712;SDS011;42589;45.536;9.032;2022-07-19T08:07:27;9.80;;;4.00;;
56712;SDS011;42589;45.536;9.032;2022-07-19T08:10:28;9.43;;;3.47;;
56712;SDS011;42589;45.536;9.032;2022-07-19T08:13:32;8.40;;;3.78;;
56712;SDS011;42589;45.536;9.032;2022-07-19T08:16:35;7.55;;;3.75;;
56712;SDS011;42589;45.536;9.032;2022-07-19T08:19:36;7.03;;;4.03;;
56712;SDS011;42589;45.536;9.032;2022-07-19T08:22:37;9.75;;;3.65;;
56712;SDS011;42589;45.536;9.032;2022-07-19T08:25:37;8.50;;;3.78;;
56712;SDS011;42589;45.536;9.032;2022-07-19T08:28:38;5.28;;;3.25;;
56712;SDS011;42589;45.536;9.032;2022-07-19T08:31:38;4.78;;;3.63;;
56712;SDS011;42589;45.536;9.032;2022-07-19T08:34:39;4.93;;;3.80;;
56712;SDS011;42589;45.536;9.032;2022-07-19T08:37:40;7.13;;;3.92;;
56712;SDS011;42589;45.536;9.032;2022-07-19T08:40:43;8.05;;;4.20;;
56712;SDS011;42589;45.536;9.032;2022-07-19T08:43:48;7.80;;;4.13;;
56712;SDS011;42589;45.536;9.032;2022-07-19T08:49:50;8.15;;;4.30;;
56712;SDS011;42589;45.536;9.032;2022-07-19T08:52:52;6.97;;;3.80;;
56712;SDS011;42589;45.536;9.032;2022-07-19T08:55:53;6.90;;;4.20;;
56712;SDS011;42589;45.536;9.032;2022-07-19T08:58:56;7.32;;;4.05;;
56712;SDS011;42589;45.536;9.032;2022-07-19T09:01:57;7.50;;;4.28;;
56712;SDS011;42589;45.536;9.032;2022-07-19T09:04:58;5.50;;;3.95;;
56712;SDS011;42589;45.536;9.032;2022-07-19T09:08:08;8.00;;;4.27;;
56712;SDS011;42589;45.536;9.032;2022-07-19T09:11:10;7.57;;;4.50;;
56712;SDS011;42589;45.536;9.032;2022-07-19T09:17:28;12.65;;;4.50;;
56712;SDS011;42589;45.536;9.032;2022-07-19T09:20:29;8.05;;;4.13;;
56712;SDS011;42589;45.536;9.032;2022-07-19T09:23:30;7.28;;;3.83;;
56712;SDS011;42589;45.536;9.032;2022-07-19T09:26:32;4.40;;;3.75;;
56712;SDS011;42589;45.536;9.032;2022-07-19T09:29:33;5.60;;;3.90;;
56712;SDS011;42589;45.536;9.032;2022-07-19T09:35:43;9.77;;;4.47;;
56712;SDS011;42589;45.536;9.032;2022-07-19T09:38:48;6.72;;;4.22;;
56712;SDS011;42589;45.536;9.032;2022-07-19T09:41:54;9.07;;;4.35;;
56712;SDS011;42589;45.536;9.032;2022-07-19T09:44:56;9.70;;;4.35;;
56712;SDS011;42589;45.536;9.032;2022-07-19T09:47:59;6.13;;;4.35;;
56712;SDS011;42589;45.536;9.032;2022-07-19T09:51:03;7.25;;;5.05;;
56712;SDS011;42589;45.536;9.032;2022-07-19T09:54:05;7.40;;;4.70;;
56712;SDS011;42589;45.536;9.032;2022-07-19T10:00:09;6.43;;;4.47;;
56712;SDS011;42589;45.536;9.032;2022-07-19T10:03:11;6.00;;;5.00;;
56712;SDS011;42589;45.536;9.032;2022-07-19T10:06:18;5.32;;;4.50;;
56712;SDS011;42589;45.536;9.032;2022-07-19T10:09:19;6.25;;;4.75;;
56712;SDS011;42589;45.536;9.032;2022-07-19T10:12:21;6.70;;;5.10;;
56712;SDS011;42589;45.536;9.032;2022-07-19T10:15:22;7.63;;;4.70;;
56712;SDS011;42589;45.536;9.032;2022-07-19T10:18:23;10.30;;;5.10;;
56712;SDS011;42589;45.536;9.032;2022-07-19T10:21:32;6.97;;;4.85;;
56712;SDS011;42589;45.536;9.032;2022-07-19T10:24:50;7.45;;;4.95;;
56712;SDS011;42589;45.536;9.032;2022-07-19T10:27:52;7.43;;;5.13;;
56712;SDS011;42589;45.536;9.032;2022-07-19T10:30:54;8.82;;;4.53;;
56712;SDS011;42589;45.536;9.032;2022-07-19T10:34:00;8.88;;;4.60;;
56712;SDS011;42589;45.536;9.032;2022-07-19T10:37:04;6.10;;;4.50;;
56712;SDS011;42589;45.536;9.032;2022-07-19T10:40:05;10.32;;;5.07;;
56712;SDS011;42589;45.536;9.032;2022-07-19T10:43:07;6.32;;;4.88;;
56712;SDS011;42589;45.536;9.032;2022-07-19T10:46:15;11.05;;;4.95;;
56712;SDS011;42589;45.536;9.032;2022-07-19T10:49:39;6.82;;;4.78;;
56712;SDS011;42589;45.536;9.032;2022-07-19T10:52:48;8.82;;;5.07;;
56712;SDS011;42589;45.536;9.032;2022-07-19T10:56:13;9.10;;;4.82;;
56712;SDS011;42589;45.536;9.032;2022-07-19T10:59:16;9.40;;;4.68;;
56712;SDS011;42589;45.536;9.032;2022-07-19T11:02:30;6.25;;;4.88;;
56712;SDS011;42589;45.536;9.032;2022-07-19T11:05:31;6.40;;;4.22;;
56712;SDS011;42589;45.536;9.032;2022-07-19T11:08:40;8.98;;;5.07;;
56712;SDS011;42589;45.536;9.032;2022-07-19T11:11:42;5.65;;;4.50;;
56712;SDS011;42589;45.536;9.032;2022-07-19T11:14:43;7.10;;;5.18;;
56712;SDS011;42589;45.536;9.032;2022-07-19T11:21:17;8.15;;;5.32;;
56712;SDS011;42589;45.536;9.032;2022-07-19T11:24:20;9.95;;;5.47;;
56712;SDS011;42589;45.536;9.032;2022-07-19T11:27:21;9.23;;;5.78;;
56712;SDS011;42589;45.536;9.032;2022-07-19T11:30:23;8.93;;;5.53;;
56712;SDS011;42589;45.536;9.032;2022-07-19T11:33:25;5.70;;;5.13;;
56712;SDS011;42589;45.536;9.032;2022-07-19T11:36:26;5.65;;;5.15;;
56712;SDS011;42589;45.536;9.032;2022-07-19T11:39:44;7.82;;;5.15;;
56712;SDS011;42589;45.536;9.032;2022-07-19T11:42:47;9.13;;;6.07;;
56712;SDS011;42589;45.536;9.032;2022-07-19T11:45:48;9.03;;;5.97;;
56712;SDS011;42589;45.536;9.032;2022-07-19T11:48:54;5.68;;;4.85;;
56712;SDS011;42589;45.536;9.032;2022-07-19T11:51:59;7.63;;;4.50;;
56712;SDS011;42589;45.536;9.032;2022-07-19T11:55:00;7.93;;;4.00;;
56712;SDS011;42589;45.536;9.032;2022-07-19T11:58:01;9.85;;;5.30;;
56712;SDS011;42589;45.536;9.032;2022-07-19T12:01:07;10.73;;;5.15;;
56712;SDS011;42589;45.536;9.032;2022-07-19T12:04:08;9.18;;;4.60;;
56712;SDS011;42589;45.536;9.032;2022-07-19T12:07:10;12.20;;;4.75;;
56712;SDS011;42589;45.536;9.032;2022-07-19T12:10:24;10.48;;;4.13;;
56712;SDS011;42589;45.536;9.032;2022-07-19T12:13:45;10.48;;;5.60;;
56712;SDS011;42589;45.536;9.032;2022-07-19T12:16:47;12.82;;;4.60;;
56712;SDS011;42589;45.536;9.032;2022-07-19T12:19:50;5.25;;;4.63;;
56712;SDS011;42589;45.536;9.032;2022-07-19T12:22:53;7.22;;;4.47;;
56712;SDS011;42589;45.536;9.032;2022-07-19T12:25:53;9.48;;;4.18;;
56712;SDS011;42589;45.536;9.032;2022-07-19T12:32:46;4.40;;;3.83;;
56712;SDS011;42589;45.536;9.032;2022-07-19T12:35:47;6.47;;;4.05;;
56712;SDS011;42589;45.536;9.032;2022-07-19T12:38:48;7.53;;;4.30;;
56712;SDS011;42589;45.536;9.032;2022-07-19T12:41:53;9.55;;;4.45;;
56712;SDS011;42589;45.536;9.032;2022-07-19T12:45:06;6.17;;;4.20;;
56712;SDS011;42589;45.536;9.032;2022-07-19T12:48:08;6.32;;;4.10;;
56712;SDS011;42589;45.536;9.032;2022-07-19T12:51:13;9.00;;;4.20;;
56712;SDS011;42589;45.536;9.032;2022-07-19T12:54:13;6.57;;;4.55;;
56712;SDS011;42589;45.536;9.032;2022-07-19T12:57:14;8.75;;;4.55;;
56712;SDS011;42589;45.536;9.032;2022-07-19T13:00:15;8.45;;;4.13;;
56712;SDS011;42589;45.536;9.032;2022-07-19T13:03:17;7.43;;;4.30;;
56712;SDS011;42589;45.536;9.032;2022-07-19T13:06:18;5.88;;;4.35;;
56712;SDS011;42589;45.536;9.032;2022-07-19T13:09:19;7.47;;;4.60;;
56712;SDS011;42589;45.536;9.032;2022-07-19T13:12:22;10.18;;;4.47;;
56712;SDS011;42589;45.536;9.032;2022-07-19T13:15:23;4.35;;;3.90;;
56712;SDS011;42589;45.536;9.032;2022-07-19T13:18:24;5.43;;;4.43;;
56712;SDS011;42589;45.536;9.032;2022-07-19T13:21:24;10.38;;;4.72;;
56712;SDS011;42589;45.536;9.032;2022-07-19T13:24:26;7.20;;;4.40;;
56712;SDS011;42589;45.536;9.032;2022-07-19T13:27:26;17.38;;;4.60;;
56712;SDS011;42589;45.536;9.032;2022-07-19T13:30:28;7.32;;;4.70;;
56712;SDS011;42589;45.536;9.032;2022-07-19T13:33:30;7.70;;;4.45;;
56712;SDS011;42589;45.536;9.032;2022-07-19T13:36:33;7.57;;;4.65;;
56712;SDS011;42589;45.536;9.032;2022-07-19T13:39:34;6.75;;;4.70;;
56712;SDS011;42589;45.536;9.032;2022-07-19T13:42:35;5.22;;;4.63;;
56712;SDS011;42589;45.536;9.032;2022-07-19T13:45:36;8.38;;;4.63;;
56712;SDS011;42589;45.536;9.032;2022-07-19T13:48:37;5.30;;;4.70;;
56712;SDS011;42589;45.536;9.032;2022-07-19T13:51:39;7.47;;;5.32;;
56712;SDS011;42589;45.536;9.032;2022-07-19T13:54:41;6.85;;;5.10;;
56712;SDS011;42589;45.536;9.032;2022-07-19T13:57:41;8.38;;;4.82;;
56712;SDS011;42589;45.536;9.032;2022-07-19T14:00:42;5.68;;;5.18;;
56712;SDS011;42589;45.536;9.032;2022-07-19T14:03:46;5.53;;;5.00;;
56712;SDS011;42589;45.536;9.032;2022-07-19T14:06:47;9.00;;;5.43;;
56712;SDS011;42589;45.536;9.032;2022-07-19T14:09:47;10.63;;;5.40;;
56712;SDS011;42589;45.536;9.032;2022-07-19T14:12:48;9.30;;;5.35;;
56712;SDS011;42589;45.536;9.032;2022-07-19T14:15:50;8.95;;;4.72;;
56712;SDS011;42589;45.536;9.032;2022-07-19T14:18:50;6.70;;;5.07;;
56712;SDS011;42589;45.536;9.032;2022-07-19T14:21:51;6.47;;;4.75;;
56712;SDS011;42589;45.536;9.032;2022-07-19T14:24:52;7.28;;;5.45;;
56712;SDS011;42589;45.536;9.032;2022-07-19T14:27:53;8.50;;;4.95;;
56712;SDS011;42589;45.536;9.032;2022-07-19T14:30:53;6.75;;;5.18;;
56712;SDS011;42589;45.536;9.032;2022-07-19T14:33:55;8.02;;;4.40;;
56712;SDS011;42589;45.536;9.032;2022-07-19T14:36:56;5.63;;;5.00;;
56712;SDS011;42589;45.536;9.032;2022-07-19T14:39:56;7.28;;;5.72;;
56712;SDS011;42589;45.536;9.032;2022-07-19T14:42:57;7.32;;;6.10;;
56712;SDS011;42589;45.536;9.032;2022-07-19T14:45:57;5.82;;;5.32;;
56712;SDS011;42589;45.536;9.032;2022-07-19T14:48:58;6.63;;;5.13;;
56712;SDS011;42589;45.536;9.032;2022-07-19T14:51:59;8.88;;;5.65;;
56712;SDS011;42589;45.536;9.032;2022-07-19T14:55:00;9.27;;;5.07;;
56712;SDS011;42589;45.536;9.032;2022-07-19T14:58:01;6.47;;;4.82;;
56712;SDS011;42589;45.536;9.032;2022-07-19T15:01:06;6.60;;;5.43;;
56712;SDS011;42589;45.536;9.032;2022-07-19T15:04:07;6.57;;;5.18;;
56712;SDS011;42589;45.536;9.032;2022-07-19T15:07:07;10.60;;;5.35;;
56712;SDS011;42589;45.536;9.032;2022-07-19T15:10:08;5.68;;;5.15;;
56712;SDS011;42589;45.536;9.032;2022-07-19T15:13:09;6.97;;;5.72;;
56712;SDS011;42589;45.536;9.032;2022-07-19T15:16:10;6.65;;;5.07;;
56712;SDS011;42589;45.536;9.032;2022-07-19T15:19:10;5.57;;;5.00;;
56712;SDS011;42589;45.536;9.032;2022-07-19T15:22:12;6.95;;;4.68;;
56712;SDS011;42589;45.536;9.032;2022-07-19T15:25:12;5.47;;;4.97;;
56712;SDS011;42589;45.536;9.032;2022-07-19T15:28:16;5.28;;;4.78;;
56712;SDS011;42589;45.536;9.032;2022-07-19T15:31:18;8.82;;;5.13;;
56712;SDS011;42589;45.536;9.032;2022-07-19T15:34:18;6.20;;;5.28;;
56712;SDS011;42589;45.536;9.032;2022-07-19T15:37:19;9.13;;;5.30;;
56712;SDS011;42589;45.536;9.032;2022-07-19T15:40:20;5.70;;;4.85;;
56712;SDS011;42589;45.536;9.032;2022-07-19T15:43:21;10.63;;;5.30;;
56712;SDS011;42589;45.536;9.032;2022-07-19T15:46:22;7.17;;;4.83;;
56712;SDS011;42589;45.536;9.032;2022-07-19T15:49:24;6.30;;;4.70;;
56712;SDS011;42589;45.536;9.032;2022-07-19T15:52:25;7.88;;;4.68;;
56712;SDS011;42589;45.536;9.032;2022-07-19T15:55:28;7.90;;;4.82;;
56712;SDS011;42589;45.536;9.032;2022-07-19T15:58:29;8.57;;;4.82;;
56712;SDS011;42589;45.536;9.032;2022-07-19T16:01:30;6.33;;;5.23;;
56712;SDS011;42589;45.536;9.032;2022-07-19T16:04:32;7.88;;;5.22;;
56712;SDS011;42589;45.536;9.032;2022-07-19T16:07:33;7.97;;;5.20;;
56712;SDS011;42589;45.536;9.032;2022-07-19T16:10:34;7.80;;;5.22;;
56712;SDS011;42589;45.536;9.032;2022-07-19T16:13:34;8.80;;;5.88;;
56712;SDS011;42589;45.536;9.032;2022-07-19T16:16:35;9.95;;;5.70;;
56712;SDS011;42589;45.536;9.032;2022-07-19T16:19:35;8.10;;;5.10;;
56712;SDS011;42589;45.536;9.032;2022-07-19T16:22:39;8.13;;;5.13;;
56712;SDS011;42589;45.536;9.032;2022-07-19T16:25:40;8.00;;;5.43;;
56712;SDS011;42589;45.536;9.032;2022-07-19T16:28:41;12.57;;;5.60;;
56712;SDS011;42589;45.536;9.032;2022-07-19T16:31:42;8.50;;;5.80;;
56712;SDS011;42589;45.536;9.032;2022-07-19T16:34:43;6.88;;;5.20;;
56712;SDS011;42589;45.536;9.032;2022-07-19T16:37:44;8.25;;;6.85;;
56712;SDS011;42589;45.536;9.032;2022-07-19T16:40:45;7.75;;;6.95;;
56712;SDS011;42589;45.536;9.032;2022-07-19T16:43:46;7.55;;;6.03;;
56712;SDS011;42589;45.536;9.032;2022-07-19T16:46:47;9.48;;;5.78;;
56712;SDS011;42589;45.536;9.032;2022-07-19T16:49:52;8.88;;;5.20;;
56712;SDS011;42589;45.536;9.032;2022-07-19T16:52:53;6.38;;;4.70;;
56712;SDS011;42589;45.536;9.032;2022-07-19T16:55:53;7.05;;;5.30;;
56712;SDS011;42589;45.536;9.032;2022-07-19T16:58:54;6.95;;;4.82;;
56712;SDS011;42589;45.536;9.032;2022-07-19T17:01:55;5.72;;;4.95;;
56712;SDS011;42589;45.536;9.032;2022-07-19T17:04:56;8.55;;;4.85;;
56712;SDS011;42589;45.536;9.032;2022-07-19T17:07:56;9.05;;;5.40;;
56712;SDS011;42589;45.536;9.032;2022-07-19T17:10:57;6.95;;;5.45;;
56712;SDS011;42589;45.536;9.032;2022-07-19T17:13:59;6.57;;;5.40;;
56712;SDS011;42589;45.536;9.032;2022-07-19T17:17:01;7.93;;;4.80;;
56712;SDS011;42589;45.536;9.032;2022-07-19T17:20:03;6.32;;;5.07;;
56712;SDS011;42589;45.536;9.032;2022-07-19T17:23:05;8.63;;;5.15;;
56712;SDS011;42589;45.536;9.032;2022-07-19T17:26:06;7.45;;;4.75;;
56712;SDS011;42589;45.536;9.032;2022-07-19T17:29:07;10.40;;;5.82;;
56712;SDS011;42589;45.536;9.032;2022-07-19T17:32:07;7.03;;;4.90;;
56712;SDS011;42589;45.536;9.032;2022-07-19T17:35:09;7.90;;;4.95;;
56712;SDS011;42589;45.536;9.032;2022-07-19T17:38:10;8.60;;;5.13;;
56712;SDS011;42589;45.536;9.032;2022-07-19T17:41:11;12.40;;;5.80;;
56712;SDS011;42589;45.536;9.032;2022-07-19T17:44:14;9.35;;;5.90;;
56712;SDS011;42589;45.536;9.032;2022-07-19T17:47:16;6.20;;;5.35;;
56712;SDS011;42589;45.536;9.032;2022-07-19T17:50:17;7.65;;;6.10;;
56712;SDS011;42589;45.536;9.032;2022-07-19T17:53:18;6.80;;;6.05;;
56712;SDS011;42589;45.536;9.032;2022-07-19T17:56:19;8.50;;;6.18;;
56712;SDS011;42589;45.536;9.032;2022-07-19T17:59:19;6.88;;;6.03;;
56712;SDS011;42589;45.536;9.032;2022-07-19T18:02:20;8.30;;;5.72;;
56712;SDS011;42589;45.536;9.032;2022-07-19T18:05:21;10.38;;;6.53;;
56712;SDS011;42589;45.536;9.032;2022-07-19T18:08:25;9.23;;;6.20;;
56712;SDS011;42589;45.536;9.032;2022-07-19T18:11:26;9.05;;;5.93;;
56712;SDS011;42589;45.536;9.032;2022-07-19T18:14:27;9.75;;;6.03;;
56712;SDS011;42589;45.536;9.032;2022-07-19T18:17:27;6.53;;;5.45;;
56712;SDS011;42589;45.536;9.032;2022-07-19T18:20:28;7.47;;;5.10;;
56712;SDS011;42589;45.536;9.032;2022-07-19T18:23:29;7.85;;;5.28;;
56712;SDS011;42589;45.536;9.032;2022-07-19T18:26:30;7.95;;;4.70;;
56712;SDS011;42589;45.536;9.032;2022-07-19T18:29:31;9.27;;;5.07;;
56712;SDS011;42589;45.536;9.032;2022-07-19T18:32:32;6.40;;;4.90;;